sensor_id;sensor_type;location;lat;lon;timestamp;pressure;altitude;pressure_sealevel;temperature;humidity
15195;BME280;7698;42.478;23.756;2023-07-02T00:01:55;92799.03;;;15.60;100.00
15195;BME280;7698;42.478;23.756;2023-07-02T00:04:22;92799.25;;;15.64;100.00
15195;BME280;7698;42.478;23.756;2023-07-02T00:06:50;92788.75;;;15.67;100.00
15195;BME280;7698;42.478;23.756;2023-07-02T00:09:17;92781.19;;;15.69;100.00
15195;BME280;7698;42.478;23.756;2023-07-02T00:11:44;92774.16;;;15.73;100.00
15195;BME280;7698;42.478;23.756;2023-07-02T00:14:13;92775.72;;;15.79;100.00
15195;BME280;7698;42.478;23.756;2023-07-02T00:16:44;92762.78;;;15.81;100.00
15195;BME280;7698;42.478;23.756;2023-07-02T00:19:11;92768.41;;;15.85;100.00
15195;BME280;7698;42.478;23.756;2023-07-02T00:21:38;92763.81;;;15.85;100.00
15195;BME280;7698;42.478;23.756;2023-07-02T00:24:08;92764.94;;;15.79;100.00
15195;BME280;7698;42.478;23.756;2023-07-02T00:26:36;92770.66;;;15.73;100.00
15195;BME280;7698;42.478;23.756;2023-07-02T00:29:04;92770.97;;;15.66;100.00
15195;BME280;7698;42.478;23.756;2023-07-02T00:31:31;92766.72;;;15.60;100.00
15195;BME280;7698;42.478;23.756;2023-07-02T00:33:58;92779.19;;;15.51;100.00
15195;BME280;7698;42.478;23.756;2023-07-02T00:36:26;92781.94;;;15.41;100.00
15195;BME280;7698;42.478;23.756;2023-07-02T00:38:53;92777.16;;;15.33;100.00
15195;BME280;7698;42.478;23.756;2023-07-02T00:41:21;92764.63;;;15.23;100.00
15195;BME280;7698;42.478;23.756;2023-07-02T00:43:48;92764.41;;;15.14;100.00
15195;BME280;7698;42.478;23.756;2023-07-02T00:46:16;92765.50;;;15.08;100.00
15195;BME280;7698;42.478;23.756;2023-07-02T00:48:46;92768.25;;;15.03;100.00
15195;BME280;7698;42.478;23.756;2023-07-02T00:51:15;92767.22;;;14.99;100.00
15195;BME280;7698;42.478;23.756;2023-07-02T00:53:43;92756.50;;;14.89;100.00
15195;BME280;7698;42.478;23.756;2023-07-02T00:56:10;92757.06;;;14.86;100.00
15195;BME280;7698;42.478;23.756;2023-07-02T00:58:41;92760.91;;;14.75;100.00
15195;BME280;7698;42.478;23.756;2023-07-02T01:01:14;92754.25;;;14.67;100.00
15195;BME280;7698;42.478;23.756;2023-07-02T01:03:50;92747.81;;;14.63;100.00
15195;BME280;7698;42.478;23.756;2023-07-02T01:06:19;92742.72;;;14.62;100.00
15195;BME280;7698;42.478;23.756;2023-07-02T01:08:50;92738.41;;;14.61;100.00
15195;BME280;7698;42.478;23.756;2023-07-02T01:11:17;92738.97;;;14.57;100.00
15195;BME280;7698;42.478;23.756;2023-07-02T01:13:47;92729.31;;;14.56;100.00
15195;BME280;7698;42.478;23.756;2023-07-02T01:16:15;92743.00;;;14.55;100.00
15195;BME280;7698;42.478;23.756;2023-07-02T01:18:42;92737.91;;;14.53;100.00
15195;BME280;7698;42.478;23.756;2023-07-02T01:21:11;92738.47;;;14.50;100.00
15195;BME280;7698;42.478;23.756;2023-07-02T01:23:38;92737.66;;;14.50;100.00
15195;BME280;7698;42.478;23.756;2023-07-02T01:26:05;92745.44;;;14.51;100.00
15195;BME280;7698;42.478;23.756;2023-07-02T01:28:35;92743.28;;;14.53;100.00
15195;BME280;7698;42.478;23.756;2023-07-02T01:31:03;92745.16;;;14.53;100.00
15195;BME280;7698;42.478;23.756;2023-07-02T01:33:30;92751.59;;;14.57;100.00
15195;BME280;7698;42.478;23.756;2023-07-02T01:35:57;92749.16;;;14.61;100.00
15195;BME280;7698;42.478;23.756;2023-07-02T01:38:26;92757.19;;;14.66;100.00
15195;BME280;7698;42.478;23.756;2023-07-02T01:40:53;92769.25;;;14.73;100.00
15195;BME280;7698;42.478;23.756;2023-07-02T01:43:19;92778.88;;;14.79;100.00
15195;BME280;7698;42.478;23.756;2023-07-02T01:45:46;92792.00;;;14.86;100.00
15195;BME280;7698;42.478;23.756;2023-07-02T01:48:13;92801.38;;;14.94;100.00
15195;BME280;7698;42.478;23.756;2023-07-02T01:50:40;92807.50;;;15.04;100.00
15195;BME280;7698;42.478;23.756;2023-07-02T01:53:07;92813.91;;;15.08;100.00
15195;BME280;7698;42.478;23.756;2023-07-02T01:55:35;92808.53;;;15.08;100.00
15195;BME280;7698;42.478;23.756;2023-07-02T01:58:01;92812.56;;;15.11;100.00
15195;BME280;7698;42.478;23.756;2023-07-02T02:00:28;92813.56;;;15.20;100.00
15195;BME280;7698;42.478;23.756;2023-07-02T02:02:55;92800.38;;;15.23;100.00
15195;BME280;7698;42.478;23.756;2023-07-02T02:05:22;92795.25;;;15.27;100.00
15195;BME280;7698;42.478;23.756;2023-07-02T02:07:48;92791.72;;;15.32;100.00
15195;BME280;7698;42.478;23.756;2023-07-02T02:10:15;92778.44;;;15.40;100.00
15195;BME280;7698;42.478;23.756;2023-07-02T02:12:43;92771.16;;;15.46;100.00
15195;BME280;7698;42.478;23.756;2023-07-02T02:15:10;92761.94;;;15.52;100.00
15195;BME280;7698;42.478;23.756;2023-07-02T02:17:39;92753.31;;;15.55;100.00
15195;BME280;7698;42.478;23.756;2023-07-02T02:20:07;92751.38;;;15.61;100.00
15195;BME280;7698;42.478;23.756;2023-07-02T02:22:34;92759.94;;;15.68;100.00
15195;BME280;7698;42.478;23.756;2023-07-02T02:25:01;92759.66;;;15.69;100.00
15195;BME280;7698;42.478;23.756;2023-07-02T02:27:29;92765.03;;;15.69;100.00
15195;BME280;7698;42.478;23.756;2023-07-02T02:29:58;92760.47;;;15.70;100.00
15195;BME280;7698;42.478;23.756;2023-07-02T02:32:24;92765.28;;;15.73;100.00
15195;BME280;7698;42.478;23.756;2023-07-02T02:34:51;92767.69;;;15.74;100.00
15195;BME280;7698;42.478;23.756;2023-07-02T02:37:20;92765.22;;;15.78;100.00
15195;BME280;7698;42.478;23.756;2023-07-02T02:39:47;92767.94;;;15.78;100.00
15195;BME280;7698;42.478;23.756;2023-07-02T02:42:13;92775.56;;;15.66;100.00
15195;BME280;7698;42.478;23.756;2023-07-02T02:44:40;92774.72;;;15.70;100.00
15195;BME280;7698;42.478;23.756;2023-07-02T02:47:08;92786.25;;;15.76;100.00
15195;BME280;7698;42.478;23.756;2023-07-02T02:49:37;92784.88;;;15.78;100.00
15195;BME280;7698;42.478;23.756;2023-07-02T02:52:04;92787.00;;;15.81;100.00
15195;BME280;7698;42.478;23.756;2023-07-02T02:54:31;92769.69;;;15.87;100.00
15195;BME280;7698;42.478;23.756;2023-07-02T02:56:57;92780.94;;;15.95;100.00
15195;BME280;7698;42.478;23.756;2023-07-02T02:59:24;92780.19;;;15.89;100.00
15195;BME280;7698;42.478;23.756;2023-07-02T03:01:51;92779.91;;;15.90;100.00
15195;BME280;7698;42.478;23.756;2023-07-02T03:04:19;92789.41;;;15.83;100.00
15195;BME280;7698;42.478;23.756;2023-07-02T03:06:49;92785.19;;;15.72;100.00
15195;BME280;7698;42.478;23.756;2023-07-02T03:09:15;92776.38;;;15.66;100.00
15195;BME280;7698;42.478;23.756;2023-07-02T03:11:43;92771.53;;;15.63;100.00
15195;BME280;7698;42.478;23.756;2023-07-02T03:14:10;92777.94;;;15.72;100.00
15195;BME280;7698;42.478;23.756;2023-07-02T03:16:37;92778.38;;;15.84;100.00
15195;BME280;7698;42.478;23.756;2023-07-02T03:19:03;92783.16;;;15.87;100.00
15195;BME280;7698;42.478;23.756;2023-07-02T03:21:31;92778.38;;;15.84;100.00
15195;BME280;7698;42.478;23.756;2023-07-02T03:23:58;92777.19;;;15.90;100.00
15195;BME280;7698;42.478;23.756;2023-07-02T03:26:25;92793.06;;;15.92;100.00
15195;BME280;7698;42.478;23.756;2023-07-02T03:28:52;92787.16;;;15.90;100.00
15195;BME280;7698;42.478;23.756;2023-07-02T03:31:19;92795.44;;;15.99;100.00
15195;BME280;7698;42.478;23.756;2023-07-02T03:33:45;60057.72;;;-145.67;100.00
15195;BME280;7698;42.478;23.756;2023-07-02T03:36:12;60057.72;;;-145.67;100.00
15195;BME280;7698;42.478;23.756;2023-07-02T03:38:40;60057.72;;;-145.67;100.00
15195;BME280;7698;42.478;23.756;2023-07-02T03:41:07;60057.72;;;-145.67;100.00
15195;BME280;7698;42.478;23.756;2023-07-02T03:43:34;60057.72;;;-145.67;100.00
15195;BME280;7698;42.478;23.756;2023-07-02T03:46:01;60057.72;;;-145.67;100.00
15195;BME280;7698;42.478;23.756;2023-07-02T03:48:28;60057.72;;;-145.67;100.00
15195;BME280;7698;42.478;23.756;2023-07-02T03:50:55;60057.72;;;-145.67;100.00
15195;BME280;7698;42.478;23.756;2023-07-02T03:53:22;60057.72;;;-145.67;100.00
15195;BME280;7698;42.478;23.756;2023-07-02T03:55:50;60057.72;;;-145.67;100.00
15195;BME280;7698;42.478;23.756;2023-07-02T03:58:17;60057.72;;;-145.67;100.00
15195;BME280;7698;42.478;23.756;2023-07-02T04:00:43;60057.72;;;-145.67;100.00
15195;BME280;7698;42.478;23.756;2023-07-02T04:03:10;60057.72;;;-145.67;100.00
15195;BME280;7698;42.478;23.756;2023-07-02T04:05:37;60057.72;;;-145.67;100.00
15195;BME280;7698;42.478;23.756;2023-07-02T04:08:04;60057.72;;;-145.67;100.00
15195;BME280;7698;42.478;23.756;2023-07-02T04:10:31;60057.72;;;-145.67;100.00
15195;BME280;7698;42.478;23.756;2023-07-02T04:12:59;60057.72;;;-145.67;100.00
15195;BME280;7698;42.478;23.756;2023-07-02T04:15:26;60057.72;;;-145.67;100.00
15195;BME280;7698;42.478;23.756;2023-07-02T04:17:52;60057.72;;;-145.67;100.00
15195;BME280;7698;42.478;23.756;2023-07-02T04:20:20;60057.72;;;-145.67;100.00
15195;BME280;7698;42.478;23.756;2023-07-02T04:22:47;60057.72;;;-145.67;100.00
15195;BME280;7698;42.478;23.756;2023-07-02T04:25:15;60057.72;;;-145.67;100.00
15195;BME280;7698;42.478;23.756;2023-07-02T04:27:42;60057.72;;;-145.67;100.00
15195;BME280;7698;42.478;23.756;2023-07-02T04:30:11;60057.72;;;-145.67;100.00
15195;BME280;7698;42.478;23.756;2023-07-02T04:32:40;60057.72;;;-145.67;100.00
15195;BME280;7698;42.478;23.756;2023-07-02T04:35:08;60057.72;;;-145.67;100.00
15195;BME280;7698;42.478;23.756;2023-07-02T04:37:35;60057.72;;;-145.67;100.00
15195;BME280;7698;42.478;23.756;2023-07-02T04:40:03;60057.72;;;-145.67;100.00
15195;BME280;7698;42.478;23.756;2023-07-02T04:42:32;60057.72;;;-145.67;100.00
15195;BME280;7698;42.478;23.756;2023-07-02T04:45:03;60057.72;;;-145.67;100.00
15195;BME280;7698;42.478;23.756;2023-07-02T04:47:32;60057.72;;;-145.67;100.00
15195;BME280;7698;42.478;23.756;2023-07-02T04:49:59;60057.72;;;-145.67;100.00
15195;BME280;7698;42.478;23.756;2023-07-02T04:52:25;60057.72;;;-145.67;100.00
15195;BME280;7698;42.478;23.756;2023-07-02T04:54:52;60057.72;;;-145.67;100.00
15195;BME280;7698;42.478;23.756;2023-07-02T04:57:20;60057.72;;;-145.67;100.00
15195;BME280;7698;42.478;23.756;2023-07-02T04:59:47;60057.72;;;-145.67;100.00
15195;BME280;7698;42.478;23.756;2023-07-02T05:02:14;60057.72;;;-145.67;100.00
15195;BME280;7698;42.478;23.756;2023-07-02T05:04:42;60057.72;;;-145.67;100.00
15195;BME280;7698;42.478;23.756;2023-07-02T05:07:09;60057.72;;;-145.67;100.00
15195;BME280;7698;42.478;23.756;2023-07-02T05:09:36;60057.72;;;-145.67;100.00
15195;BME280;7698;42.478;23.756;2023-07-02T05:12:03;60057.72;;;-145.67;100.00
15195;BME280;7698;42.478;23.756;2023-07-02T05:14:30;60057.72;;;-145.67;100.00
15195;BME280;7698;42.478;23.756;2023-07-02T05:16:58;60057.72;;;-145.67;100.00
15195;BME280;7698;42.478;23.756;2023-07-02T05:19:25;60057.72;;;-145.67;100.00
15195;BME280;7698;42.478;23.756;2023-07-02T05:21:53;60057.72;;;-145.67;100.00
15195;BME280;7698;42.478;23.756;2023-07-02T05:24:20;60057.72;;;-145.67;100.00
15195;BME280;7698;42.478;23.756;2023-07-02T05:26:47;60057.72;;;-145.67;100.00
15195;BME280;7698;42.478;23.756;2023-07-02T05:29:16;60057.72;;;-145.67;100.00
15195;BME280;7698;42.478;23.756;2023-07-02T05:31:44;60057.72;;;-145.67;100.00
15195;BME280;7698;42.478;23.756;2023-07-02T05:34:11;60057.72;;;-145.67;100.00
15195;BME280;7698;42.478;23.756;2023-07-02T05:36:38;60057.72;;;-145.67;100.00
15195;BME280;7698;42.478;23.756;2023-07-02T05:39:06;60057.72;;;-145.67;100.00
15195;BME280;7698;42.478;23.756;2023-07-02T05:41:33;60057.72;;;-145.67;100.00
15195;BME280;7698;42.478;23.756;2023-07-02T05:44:00;60057.72;;;-145.67;100.00
15195;BME280;7698;42.478;23.756;2023-07-02T05:46:27;60057.72;;;-145.67;100.00
15195;BME280;7698;42.478;23.756;2023-07-02T05:48:54;60057.72;;;-145.67;100.00
15195;BME280;7698;42.478;23.756;2023-07-02T05:51:22;60057.72;;;-145.67;100.00
15195;BME280;7698;42.478;23.756;2023-07-02T05:53:49;60057.72;;;-145.67;100.00
15195;BME280;7698;42.478;23.756;2023-07-02T05:56:18;60057.72;;;-145.67;100.00
15195;BME280;7698;42.478;23.756;2023-07-02T05:58:45;60057.72;;;-145.67;100.00
15195;BME280;7698;42.478;23.756;2023-07-02T06:01:12;60057.72;;;-145.67;100.00
15195;BME280;7698;42.478;23.756;2023-07-02T06:03:39;60057.72;;;-145.67;100.00
15195;BME280;7698;42.478;23.756;2023-07-02T06:06:07;60057.72;;;-145.67;100.00
15195;BME280;7698;42.478;23.756;2023-07-02T06:08:34;60057.72;;;-145.67;100.00
15195;BME280;7698;42.478;23.756;2023-07-02T06:11:01;60057.72;;;-145.67;100.00
15195;BME280;7698;42.478;23.756;2023-07-02T06:13:29;60057.72;;;-145.67;100.00
15195;BME280;7698;42.478;23.756;2023-07-02T06:15:56;60057.72;;;-145.67;100.00
15195;BME280;7698;42.478;23.756;2023-07-02T06:18:24;60057.72;;;-145.67;100.00
15195;BME280;7698;42.478;23.756;2023-07-02T06:20:51;60057.72;;;-145.67;100.00
15195;BME280;7698;42.478;23.756;2023-07-02T06:23:18;60057.72;;;-145.67;100.00
15195;BME280;7698;42.478;23.756;2023-07-02T06:25:45;60057.72;;;-145.67;100.00
15195;BME280;7698;42.478;23.756;2023-07-02T06:28:12;60057.72;;;-145.67;100.00
15195;BME280;7698;42.478;23.756;2023-07-02T06:30:40;60057.72;;;-145.67;100.00
15195;BME280;7698;42.478;23.756;2023-07-02T06:33:07;60057.72;;;-145.67;100.00
15195;BME280;7698;42.478;23.756;2023-07-02T06:35:34;60057.72;;;-145.67;100.00
15195;BME280;7698;42.478;23.756;2023-07-02T06:38:01;60057.72;;;-145.67;100.00
15195;BME280;7698;42.478;23.756;2023-07-02T06:40:28;60057.72;;;-145.67;100.00
15195;BME280;7698;42.478;23.756;2023-07-02T06:42:55;60057.72;;;-145.67;100.00
15195;BME280;7698;42.478;23.756;2023-07-02T06:45:23;60057.72;;;-145.67;100.00
15195;BME280;7698;42.478;23.756;2023-07-02T06:47:51;60057.72;;;-145.67;100.00
15195;BME280;7698;42.478;23.756;2023-07-02T06:50:19;60057.72;;;-145.67;100.00
15195;BME280;7698;42.478;23.756;2023-07-02T06:52:47;60057.72;;;-145.67;100.00
15195;BME280;7698;42.478;23.756;2023-07-02T06:55:15;60057.72;;;-145.67;100.00
15195;BME280;7698;42.478;23.756;2023-07-02T06:57:42;60057.72;;;-145.67;100.00
15195;BME280;7698;42.478;23.756;2023-07-02T07:00:12;60057.72;;;-145.67;100.00
15195;BME280;7698;42.478;23.756;2023-07-02T07:02:40;60057.72;;;-145.67;100.00
15195;BME280;7698;42.478;23.756;2023-07-02T07:05:09;60057.72;;;-145.67;100.00
15195;BME280;7698;42.478;23.756;2023-07-02T07:07:36;60057.72;;;-145.67;100.00
15195;BME280;7698;42.478;23.756;2023-07-02T07:10:04;60057.72;;;-145.67;100.00
15195;BME280;7698;42.478;23.756;2023-07-02T07:12:32;60057.72;;;-145.67;100.00
15195;BME280;7698;42.478;23.756;2023-07-02T07:14:59;60057.72;;;-145.67;100.00
15195;BME280;7698;42.478;23.756;2023-07-02T07:17:27;60057.72;;;-145.67;100.00
15195;BME280;7698;42.478;23.756;2023-07-02T07:19:55;60057.72;;;-145.67;100.00
15195;BME280;7698;42.478;23.756;2023-07-02T07:22:23;60057.72;;;-145.67;100.00
15195;BME280;7698;42.478;23.756;2023-07-02T07:24:50;60057.72;;;-145.67;100.00
15195;BME280;7698;42.478;23.756;2023-07-02T07:27:17;60057.72;;;-145.67;100.00
15195;BME280;7698;42.478;23.756;2023-07-02T07:29:44;60057.72;;;-145.67;100.00
15195;BME280;7698;42.478;23.756;2023-07-02T07:32:11;60057.72;;;-145.67;100.00
15195;BME280;7698;42.478;23.756;2023-07-02T07:34:40;60057.72;;;-145.67;100.00
15195;BME280;7698;42.478;23.756;2023-07-02T07:37:08;60057.72;;;-145.67;100.00
15195;BME280;7698;42.478;23.756;2023-07-02T07:39:37;60057.72;;;-145.67;100.00
15195;BME280;7698;42.478;23.756;2023-07-02T07:42:04;60057.72;;;-145.67;100.00
15195;BME280;7698;42.478;23.756;2023-07-02T07:44:32;60057.72;;;-145.67;100.00
15195;BME280;7698;42.478;23.756;2023-07-02T07:46:59;60057.72;;;-145.67;100.00
15195;BME280;7698;42.478;23.756;2023-07-02T07:49:27;60057.72;;;-145.67;100.00
15195;BME280;7698;42.478;23.756;2023-07-02T07:51:54;60057.72;;;-145.67;100.00
15195;BME280;7698;42.478;23.756;2023-07-02T07:54:21;60057.72;;;-145.67;100.00
15195;BME280;7698;42.478;23.756;2023-07-02T07:56:51;60057.72;;;-145.67;100.00
15195;BME280;7698;42.478;23.756;2023-07-02T07:59:18;60057.72;;;-145.67;100.00
15195;BME280;7698;42.478;23.756;2023-07-02T08:01:45;60057.72;;;-145.67;100.00
15195;BME280;7698;42.478;23.756;2023-07-02T08:04:13;60057.72;;;-145.67;100.00
15195;BME280;7698;42.478;23.756;2023-07-02T08:06:41;60057.72;;;-145.67;100.00
15195;BME280;7698;42.478;23.756;2023-07-02T08:09:09;60057.72;;;-145.67;100.00
15195;BME280;7698;42.478;23.756;2023-07-02T08:11:37;60057.72;;;-145.67;100.00
15195;BME280;7698;42.478;23.756;2023-07-02T08:14:06;60057.72;;;-145.67;100.00
15195;BME280;7698;42.478;23.756;2023-07-02T08:16:34;60057.72;;;-145.67;100.00
15195;BME280;7698;42.478;23.756;2023-07-02T08:19:01;60057.72;;;-145.67;100.00
15195;BME280;7698;42.478;23.756;2023-07-02T08:21:29;60057.72;;;-145.67;100.00
15195;BME280;7698;42.478;23.756;2023-07-02T08:23:58;60057.72;;;-145.67;100.00
15195;BME280;7698;42.478;23.756;2023-07-02T08:26:27;60057.72;;;-145.67;100.00
15195;BME280;7698;42.478;23.756;2023-07-02T08:28:55;60057.72;;;-145.67;100.00
15195;BME280;7698;42.478;23.756;2023-07-02T08:31:24;60057.72;;;-145.67;100.00
15195;BME280;7698;42.478;23.756;2023-07-02T08:33:52;60057.72;;;-145.67;100.00
15195;BME280;7698;42.478;23.756;2023-07-02T08:36:20;60057.72;;;-145.67;100.00
15195;BME280;7698;42.478;23.756;2023-07-02T08:38:48;60057.72;;;-145.67;100.00
15195;BME280;7698;42.478;23.756;2023-07-02T08:41:17;60057.72;;;-145.67;100.00
15195;BME280;7698;42.478;23.756;2023-07-02T08:43:44;60057.72;;;-145.67;100.00
15195;BME280;7698;42.478;23.756;2023-07-02T08:46:15;60057.72;;;-145.67;100.00
15195;BME280;7698;42.478;23.756;2023-07-02T08:48:44;60057.72;;;-145.67;100.00
15195;BME280;7698;42.478;23.756;2023-07-02T08:51:12;60057.72;;;-145.67;100.00
15195;BME280;7698;42.478;23.756;2023-07-02T08:53:40;60057.72;;;-145.67;100.00
15195;BME280;7698;42.478;23.756;2023-07-02T08:56:08;60057.72;;;-145.67;100.00
15195;BME280;7698;42.478;23.756;2023-07-02T08:58:36;60057.72;;;-145.67;100.00
15195;BME280;7698;42.478;23.756;2023-07-02T09:01:08;60057.72;;;-145.67;100.00
15195;BME280;7698;42.478;23.756;2023-07-02T09:03:36;60057.72;;;-145.67;100.00
15195;BME280;7698;42.478;23.756;2023-07-02T09:06:07;60057.72;;;-145.67;100.00
15195;BME280;7698;42.478;23.756;2023-07-02T09:08:35;60057.72;;;-145.67;100.00
15195;BME280;7698;42.478;23.756;2023-07-02T09:11:07;60057.72;;;-145.67;100.00
15195;BME280;7698;42.478;23.756;2023-07-02T09:13:43;60057.72;;;-145.67;100.00
15195;BME280;7698;42.478;23.756;2023-07-02T09:16:24;60057.72;;;-145.67;100.00
15195;BME280;7698;42.478;23.756;2023-07-02T09:19:00;60057.72;;;-145.67;100.00
15195;BME280;7698;42.478;23.756;2023-07-02T09:21:38;60057.72;;;-145.67;100.00
15195;BME280;7698;42.478;23.756;2023-07-02T09:24:16;60057.72;;;-145.67;100.00
15195;BME280;7698;42.478;23.756;2023-07-02T09:26:44;60057.72;;;-145.67;100.00
15195;BME280;7698;42.478;23.756;2023-07-02T09:29:12;60057.72;;;-145.67;100.00
15195;BME280;7698;42.478;23.756;2023-07-02T09:31:44;60057.72;;;-145.67;100.00
15195;BME280;7698;42.478;23.756;2023-07-02T09:34:11;60057.72;;;-145.67;100.00
15195;BME280;7698;42.478;23.756;2023-07-02T09:36:40;60057.72;;;-145.67;100.00
15195;BME280;7698;42.478;23.756;2023-07-02T09:39:11;60057.72;;;-145.67;100.00
15195;BME280;7698;42.478;23.756;2023-07-02T09:41:39;60057.72;;;-145.67;100.00
15195;BME280;7698;42.478;23.756;2023-07-02T09:44:09;60057.72;;;-145.67;100.00
15195;BME280;7698;42.478;23.756;2023-07-02T09:46:37;60057.72;;;-145.67;100.00
15195;BME280;7698;42.478;23.756;2023-07-02T09:49:13;60057.72;;;-145.67;100.00
15195;BME280;7698;42.478;23.756;2023-07-02T09:51:43;60057.72;;;-145.67;100.00
15195;BME280;7698;42.478;23.756;2023-07-02T09:54:11;60057.72;;;-145.67;100.00
15195;BME280;7698;42.478;23.756;2023-07-02T09:56:40;60057.72;;;-145.67;100.00
15195;BME280;7698;42.478;23.756;2023-07-02T09:59:08;60057.72;;;-145.67;100.00
15195;BME280;7698;42.478;23.756;2023-07-02T10:01:36;60057.72;;;-145.67;100.00
15195;BME280;7698;42.478;23.756;2023-07-02T10:04:13;60057.72;;;-145.67;100.00
15195;BME280;7698;42.478;23.756;2023-07-02T10:06:50;60057.72;;;-145.67;100.00
15195;BME280;7698;42.478;23.756;2023-07-02T10:09:18;60057.72;;;-145.67;100.00
15195;BME280;7698;42.478;23.756;2023-07-02T10:11:46;60057.72;;;-145.67;100.00
15195;BME280;7698;42.478;23.756;2023-07-02T10:14:15;60057.72;;;-145.67;100.00
15195;BME280;7698;42.478;23.756;2023-07-02T10:16:50;60057.72;;;-145.67;100.00
15195;BME280;7698;42.478;23.756;2023-07-02T10:19:18;60057.72;;;-145.67;100.00
15195;BME280;7698;42.478;23.756;2023-07-02T10:21:45;60057.72;;;-145.67;100.00
15195;BME280;7698;42.478;23.756;2023-07-02T10:24:17;60057.72;;;-145.67;100.00
15195;BME280;7698;42.478;23.756;2023-07-02T10:26:55;60057.72;;;-145.67;100.00
15195;BME280;7698;42.478;23.756;2023-07-02T10:29:24;60057.72;;;-145.67;100.00
15195;BME280;7698;42.478;23.756;2023-07-02T10:31:54;60057.72;;;-145.67;100.00
15195;BME280;7698;42.478;23.756;2023-07-02T10:34:29;60057.72;;;-145.67;100.00
15195;BME280;7698;42.478;23.756;2023-07-02T10:36:57;60057.72;;;-145.67;100.00
15195;BME280;7698;42.478;23.756;2023-07-02T10:39:26;60057.72;;;-145.67;100.00
15195;BME280;7698;42.478;23.756;2023-07-02T10:42:04;60057.72;;;-145.67;100.00
15195;BME280;7698;42.478;23.756;2023-07-02T10:44:31;60057.72;;;-145.67;100.00
15195;BME280;7698;42.478;23.756;2023-07-02T10:46:59;60057.72;;;-145.67;100.00
15195;BME280;7698;42.478;23.756;2023-07-02T10:49:31;60057.72;;;-145.67;100.00
15195;BME280;7698;42.478;23.756;2023-07-02T10:52:00;60057.72;;;-145.67;100.00
15195;BME280;7698;42.478;23.756;2023-07-02T10:54:40;60057.72;;;-145.67;100.00
15195;BME280;7698;42.478;23.756;2023-07-02T10:57:08;60057.72;;;-145.67;100.00
15195;BME280;7698;42.478;23.756;2023-07-02T10:59:36;60057.72;;;-145.67;100.00
15195;BME280;7698;42.478;23.756;2023-07-02T11:02:04;60057.72;;;-145.67;100.00
15195;BME280;7698;42.478;23.756;2023-07-02T11:04:32;60057.72;;;-145.67;100.00
15195;BME280;7698;42.478;23.756;2023-07-02T11:07:01;60057.72;;;-145.67;100.00
15195;BME280;7698;42.478;23.756;2023-07-02T11:09:28;60057.72;;;-145.67;100.00
15195;BME280;7698;42.478;23.756;2023-07-02T11:11:59;60057.72;;;-145.67;100.00
15195;BME280;7698;42.478;23.756;2023-07-02T11:14:28;60057.72;;;-145.67;100.00
15195;BME280;7698;42.478;23.756;2023-07-02T11:16:56;60057.72;;;-145.67;100.00
15195;BME280;7698;42.478;23.756;2023-07-02T11:19:23;60057.72;;;-145.67;100.00
15195;BME280;7698;42.478;23.756;2023-07-02T11:21:52;60057.72;;;-145.67;100.00
15195;BME280;7698;42.478;23.756;2023-07-02T11:24:27;60057.72;;;-145.67;100.00
15195;BME280;7698;42.478;23.756;2023-07-02T11:26:57;60057.72;;;-145.67;100.00
15195;BME280;7698;42.478;23.756;2023-07-02T11:29:25;60057.72;;;-145.67;100.00
15195;BME280;7698;42.478;23.756;2023-07-02T11:31:52;60057.72;;;-145.67;100.00
15195;BME280;7698;42.478;23.756;2023-07-02T11:34:20;60057.72;;;-145.67;100.00
15195;BME280;7698;42.478;23.756;2023-07-02T11:36:48;60057.72;;;-145.67;100.00
15195;BME280;7698;42.478;23.756;2023-07-02T11:39:15;60057.72;;;-145.67;100.00
15195;BME280;7698;42.478;23.756;2023-07-02T11:41:45;60057.72;;;-145.67;100.00
15195;BME280;7698;42.478;23.756;2023-07-02T11:44:15;60057.72;;;-145.67;100.00
15195;BME280;7698;42.478;23.756;2023-07-02T11:46:42;60057.72;;;-145.67;100.00
15195;BME280;7698;42.478;23.756;2023-07-02T11:49:10;60057.72;;;-145.67;100.00
15195;BME280;7698;42.478;23.756;2023-07-02T11:51:38;60057.72;;;-145.67;100.00
15195;BME280;7698;42.478;23.756;2023-07-02T11:54:07;60057.72;;;-145.67;100.00
15195;BME280;7698;42.478;23.756;2023-07-02T11:56:34;60057.72;;;-145.67;100.00
15195;BME280;7698;42.478;23.756;2023-07-02T11:59:02;60057.72;;;-145.67;100.00
15195;BME280;7698;42.478;23.756;2023-07-02T12:01:31;60057.72;;;-145.67;100.00
15195;BME280;7698;42.478;23.756;2023-07-02T12:04:00;60057.72;;;-145.67;100.00
15195;BME280;7698;42.478;23.756;2023-07-02T12:06:28;60057.72;;;-145.67;100.00
15195;BME280;7698;42.478;23.756;2023-07-02T12:08:56;60057.72;;;-145.67;100.00
15195;BME280;7698;42.478;23.756;2023-07-02T12:11:23;60057.72;;;-145.67;100.00
15195;BME280;7698;42.478;23.756;2023-07-02T12:13:51;60057.72;;;-145.67;100.00
15195;BME280;7698;42.478;23.756;2023-07-02T12:16:20;60057.72;;;-145.67;100.00
15195;BME280;7698;42.478;23.756;2023-07-02T12:18:49;60057.72;;;-145.67;100.00
15195;BME280;7698;42.478;23.756;2023-07-02T12:21:17;60057.72;;;-145.67;100.00
15195;BME280;7698;42.478;23.756;2023-07-02T12:23:46;60057.72;;;-145.67;100.00
15195;BME280;7698;42.478;23.756;2023-07-02T12:26:13;60057.72;;;-145.67;100.00
15195;BME280;7698;42.478;23.756;2023-07-02T12:28:40;60057.72;;;-145.67;100.00
15195;BME280;7698;42.478;23.756;2023-07-02T12:31:08;60057.72;;;-145.67;100.00
15195;BME280;7698;42.478;23.756;2023-07-02T12:33:36;60057.72;;;-145.67;100.00
15195;BME280;7698;42.478;23.756;2023-07-02T12:36:05;60057.72;;;-145.67;100.00
15195;BME280;7698;42.478;23.756;2023-07-02T12:38:32;60057.72;;;-145.67;100.00
15195;BME280;7698;42.478;23.756;2023-07-02T12:41:00;60057.72;;;-145.67;100.00